Time;durP1;ratioP1;P1;durP2;ratioP2;P2;SDS_P1;SDS_P2;PMS_P1;PMS_P2;Temp;Humidity;BMP_temperature;BMP_pressure;BME280_temperature;BME280_humidity;BME280_pressure;Samples;Min_cycle;Max_cycle;Signal;HPM_P1;HPM_P2
2023/01/30 00:01:14;;;;;;;25.43;17.30;;;-3.00;90.20;;;-3.89;82.97;98441.16;5072068;28;20470;-80
2023/01/30 00:03:41;;;;;;;25.97;17.60;;;-3.00;90.30;;;-3.83;83.13;98445.13;5071167;28;20543;-81
2023/01/30 00:06:10;;;;;;;25.80;15.90;;;-3.00;90.60;;;-3.82;83.67;98464.44;5072152;28;22165;-79
2023/01/30 00:08:38;;;;;;;29.57;18.63;;;-3.00;90.30;;;-3.73;83.10;98456.69;5072693;28;20454;-79
2023/01/30 00:11:08;;;;;;;28.27;18.20;;;-3.00;90.70;;;-3.84;83.55;98430.25;5070810;28;21071;-81
2023/01/30 00:13:35;;;;;;;27.20;16.70;;;-3.10;90.20;;;-3.87;83.55;98425.16;5087512;28;21202;-82
2023/01/30 00:16:03;;;;;;;28.67;17.40;;;-3.10;91.10;;;-3.83;83.37;98418.72;5069437;28;20487;-82
2023/01/30 00:18:31;;;;;;;24.17;17.57;;;-3.10;90.90;;;-3.79;83.46;98409.63;5079225;28;20448;-80
2023/01/30 00:21:01;;;;;;;29.33;17.33;;;-3.10;90.60;;;-4.20;83.44;98366.00;5078098;28;20484;-84
2023/01/30 00:23:31;;;;;;;24.30;16.03;;;-3.10;90.60;;;-4.04;83.80;98387.66;5077544;28;20457;-82
2023/01/30 00:26:00;;;;;;;26.13;16.73;;;-3.10;90.90;;;-3.87;83.87;98404.06;5074914;28;20904;-81
2023/01/30 00:28:27;;;;;;;27.67;17.13;;;-3.10;90.80;;;-3.76;83.33;98409.38;5071321;28;20477;-82
2023/01/30 00:30:56;;;;;;;25.13;17.47;;;-3.10;91.20;;;-3.85;83.65;98397.72;5073668;28;20477;-81
2023/01/30 00:33:25;;;;;;;27.27;17.50;;;-3.10;91.10;;;-3.91;83.71;98392.03;5074297;28;21002;-82
2023/01/30 00:35:55;;;;;;;32.63;19.57;;;-3.10;91.10;;;-3.82;83.59;98398.44;5083689;28;20475;-82
2023/01/30 00:38:24;;;;;;;22.53;17.60;;;-3.10;91.40;;;-3.92;83.20;98407.06;5083520;28;21033;-80
2023/01/30 00:40:52;;;;;;;27.20;17.80;;;-3.20;90.80;;;-3.92;83.55;98422.03;5080778;28;20512;-80
2023/01/30 00:48:59;;;;;;;27.03;17.83;;;-3.40;92.40;;;-4.01;85.25;98434.13;5119646;28;20474;-81
2023/01/30 00:51:27;;;;;;;27.13;17.73;;;-3.40;93.40;;;-3.90;85.07;98449.16;5079318;28;20596;-82
2023/01/30 00:53:54;;;;;;;32.90;19.40;;;-3.30;94.30;;;-3.85;85.50;98449.69;5083477;28;20448;-81
2023/01/30 00:56:22;;;;;;;29.37;18.57;;;-3.30;94.90;;;-3.68;85.59;98459.00;5081073;28;20460;-80
2023/01/30 00:58:50;;;;;;;35.60;20.07;;;-3.10;96.10;;;-3.64;85.13;98444.63;5076825;28;20482;-79
2023/01/30 01:01:17;;;;;;;32.60;19.43;;;-2.90;95.90;;;-3.32;84.70;98464.28;5080890;28;20470;-81
2023/01/30 01:03:44;;;;;;;29.07;19.03;;;-2.70;95.40;;;-3.25;84.24;98462.88;5081584;28;20456;-81
2023/01/30 01:06:12;;;;;;;26.70;18.80;;;-2.60;94.80;;;-3.01;83.84;98464.56;5079575;28;20458;-80
2023/01/30 01:08:39;;;;;;;27.00;17.70;;;-2.50;94.30;;;-3.51;83.75;98383.75;5083160;28;20459;-80
2023/01/30 01:11:06;;;;;;;30.70;18.70;;;-2.40;93.20;;;-2.87;83.27;98448.50;5078171;28;20458;-81
2023/01/30 01:13:36;;;;;;;25.60;18.33;;;-2.30;92.70;;;-3.11;82.65;98390.44;5083242;28;20466;-81
2023/01/30 01:16:04;;;;;;;27.40;18.63;;;-2.20;92.30;;;-2.48;81.30;98456.06;5083032;28;20450;-80
2023/01/30 01:18:32;;;;;;;24.40;16.67;;;-1.90;91.20;;;-2.35;80.82;98450.66;5081957;28;20559;-80
2023/01/30 01:21:00;;;;;;;27.10;17.77;;;-1.80;90.00;;;-2.29;80.67;98444.84;5087220;28;20569;-80
2023/01/30 01:23:27;;;;;;;27.40;18.97;;;-1.70;87.50;;;-2.32;80.56;98436.31;5086178;28;20466;-80
2023/01/30 01:25:54;;;;;;;27.03;19.17;;;-1.60;86.60;;;-2.11;80.12;98430.28;5104067;28;20465;-79
2023/01/30 01:28:21;;;;;;;25.07;17.67;;;-1.50;85.70;;;-2.15;80.57;98441.09;5084272;28;20466;-81
2023/01/30 01:30:51;;;;;;;28.77;17.80;;;-1.50;84.90;;;-1.95;80.19;98440.44;5078382;28;20469;-81
2023/01/30 01:33:18;;;;;;;27.70;17.27;;;-1.30;84.90;;;-2.14;79.45;98431.34;5080154;28;20440;-82
2023/01/30 01:35:46;;;;;;;22.73;15.27;;;-1.30;83.70;;;-2.05;79.55;98430.56;5075702;28;20970;-79
2023/01/30 01:38:14;;;;;;;25.07;17.40;;;-1.30;84.00;;;-1.97;79.88;98422.03;5089031;28;21013;-80
2023/01/30 01:41:05;;;;;;;26.67;17.87;;;-1.20;83.60;;;-1.90;79.49;98422.34;5076235;28;20476;-82
2023/01/30 01:43:35;;;;;;;26.23;17.23;;;-1.10;83.20;;;-1.83;79.86;98407.66;5088289;28;20537;-81
2023/01/30 01:46:14;;;;;;;24.63;16.30;;;-1.00;83.10;;;-1.76;79.02;98398.22;5087138;28;20445;-80
2023/01/30 01:48:48;;;;;;;25.10;16.43;;;-1.00;82.80;;;-1.79;78.99;98385.22;5097182;28;20491;-78
2023/01/30 01:51:21;;;;;;;21.27;14.90;;;-1.00;82.50;;;-2.12;79.22;98299.66;5095591;28;20491;-80
2023/01/30 01:53:54;;;;;;;24.97;15.87;;;-0.90;82.40;;;-2.05;78.54;98300.81;5100345;28;20516;-80
2023/01/30 01:56:22;;;;;;;27.93;16.03;;;-0.80;81.80;;;-1.39;78.17;98383.69;5099370;28;20492;-81
2023/01/30 01:58:55;;;;;;;25.90;15.37;;;-0.70;81.30;;;-1.31;77.60;98380.38;5089723;28;20587;-79
2023/01/30 02:01:24;;;;;;;25.70;16.33;;;-0.60;80.40;;;-1.25;77.35;98371.06;5083505;28;20498;-80
2023/01/30 02:03:57;;;;;;;24.03;15.60;;;-0.60;80.40;;;-1.40;77.10;98371.41;5081248;28;20453;-79
2023/01/30 02:06:24;;;;;;;26.53;17.67;;;-0.50;80.10;;;-1.50;77.31;98302.44;5076703;28;20454;-80
2023/01/30 02:08:56;;;;;;;23.13;16.90;;;-0.50;80.40;;;-1.37;78.31;98349.09;5090114;28;20914;-79
2023/01/30 02:11:31;;;;;;;26.00;15.30;;;-0.50;80.50;;;-1.55;79.58;98347.03;5077159;28;20455;-80
2023/01/30 02:14:01;;;;;;;28.60;17.23;;;-0.60;81.70;;;-1.63;80.43;98331.78;5093103;28;20550;-79
2023/01/30 02:16:30;;;;;;;32.07;17.37;;;-0.70;83.80;;;-1.46;80.79;98330.34;5088121;28;20627;-80
2023/01/30 02:18:57;;;;;;;27.03;18.00;;;-0.70;84.80;;;-1.52;80.63;98320.28;5091339;28;20454;-78
2023/01/30 02:22:01;;;;;;;25.50;18.57;;;-0.70;85.20;;;-1.49;80.96;98317.34;5091968;28;20494;-79
2023/01/30 02:24:48;;;;;;;27.83;16.40;;;-0.70;85.70;;;-1.61;80.66;98316.59;5099082;28;20517;-80
2023/01/30 02:27:38;;;;;;;23.97;15.87;;;-0.70;85.00;;;-1.49;80.70;98322.66;5103454;28;20909;-80
2023/01/30 02:30:52;;;;;;;24.37;16.23;;;-0.70;84.50;;;-1.51;79.98;98284.84;5102974;28;20464;-80
2023/01/30 02:33:32;;;;;;;23.47;14.83;;;-0.60;84.00;;;-1.39;79.28;98276.81;5063193;28;20578;-79
2023/01/30 02:36:11;;;;;;;21.80;14.10;;;-0.50;82.70;;;-1.83;79.27;98195.72;5082583;28;20459;-79
2023/01/30 02:38:48;;;;;;;21.97;13.10;;;-0.50;82.50;;;-1.35;79.19;98263.16;5081903;28;20453;-79
2023/01/30 02:41:27;;;;;;;22.90;14.80;;;-0.50;81.80;;;-1.26;79.01;98258.88;5086200;28;20468;-79
2023/01/30 02:44:04;;;;;;;25.10;17.10;;;-0.40;81.50;;;-1.74;78.64;98194.09;5088997;28;20510;-80
2023/01/30 02:46:39;;;;;;;22.10;13.67;;;-0.40;80.60;;;-1.02;77.79;98289.50;5103263;27;20465;-80
2023/01/30 02:49:14;;;;;;;26.83;16.20;;;-0.30;80.30;;;-1.24;77.40;98262.22;5081045;28;20446;-81
2023/01/30 02:51:44;;;;;;;25.37;15.43;;;-0.30;80.30;;;-1.04;77.56;98275.53;5082386;28;20505;-80
2023/01/30 02:54:12;;;;;;;19.30;13.10;;;-0.30;80.40;;;-0.95;77.16;98274.75;5087821;28;20887;-79
2023/01/30 02:56:48;;;;;;;20.53;14.70;;;-0.20;79.70;;;-0.94;76.97;98257.84;5086203;28;20479;-78
2023/01/30 02:59:20;;;;;;;23.17;15.00;;;-0.10;79.60;;;-1.66;76.70;98135.97;5105445;28;20434;-79
2023/01/30 03:02:31;;;;;;;19.30;12.60;;;-0.10;79.40;;;-0.72;76.17;98270.03;5106660;28;20486;-79
2023/01/30 03:05:20;;;;;;;20.67;13.77;;;0.00;79.20;;;-0.86;77.12;98257.16;5087358;28;20904;-80
2023/01/30 03:07:55;;;;;;;22.73;13.43;;;0.00;79.20;;;-0.76;76.42;98252.72;5086229;28;20445;-80
2023/01/30 03:10:34;;;;;;;17.20;12.10;;;0.00;79.20;;;-0.78;76.81;98246.69;5084714;28;20458;-80
2023/01/30 03:13:10;;;;;;;19.53;13.33;;;0.00;79.20;;;-0.66;76.22;98236.81;5087410;28;20466;-80
2023/01/30 03:15:44;;;;;;;21.30;13.07;;;0.10;79.20;;;-0.61;76.19;98221.28;5099220;28;20561;-80
2023/01/30 03:18:12;;;;;;;21.07;14.30;;;0.10;79.10;;;-0.57;75.98;98227.19;5083327;28;20459;-80
2023/01/30 03:20:41;;;;;;;18.27;12.90;;;0.20;79.00;;;-0.61;76.62;98213.34;5081766;28;20512;-78
2023/01/30 03:23:09;;;;;;;19.83;13.83;;;0.20;79.20;;;-0.63;76.48;98215.28;5076379;28;21229;-81
2023/01/30 03:25:40;;;;;;;17.07;12.10;;;0.10;79.10;;;-0.63;76.86;98204.69;5077237;28;20450;-81
2023/01/30 03:28:09;;;;;;;21.43;14.27;;;0.20;79.20;;;-0.63;76.63;98185.25;5086014;28;20455;-82
2023/01/30 03:30:37;;;;;;;20.27;14.00;;;0.20;79.20;;;-0.79;77.19;98167.25;5074200;28;20477;-82
2023/01/30 03:33:04;;;;;;;19.43;13.13;;;0.10;79.30;;;-0.73;77.12;98172.84;5093207;27;20544;-78
2023/01/30 03:35:31;;;;;;;16.20;10.27;;;0.10;79.50;;;-0.89;77.38;98160.09;5075773;28;20509;-80
2023/01/30 03:38:01;;;;;;;19.37;12.87;;;0.10;79.60;;;-0.71;77.13;98177.97;5079116;28;21113;-80
2023/01/30 03:40:28;;;;;;;19.20;12.60;;;0.10;79.80;;;-0.61;77.33;98185.94;5073951;28;20560;-82
2023/01/30 03:42:56;;;;;;;20.17;12.90;;;0.10;79.50;;;-0.57;76.79;98182.06;5076299;28;20493;-82
2023/01/30 03:45:23;;;;;;;18.60;12.60;;;0.20;79.30;;;-0.52;76.20;98194.91;5075051;28;20970;-81
2023/01/30 03:47:51;;;;;;;17.73;11.63;;;0.20;79.20;;;-0.95;76.55;98118.22;5071512;28;20460;-83
2023/01/30 03:50:18;;;;;;;21.80;13.77;;;0.20;79.10;;;-0.53;76.39;98177.28;5078224;28;20507;-82
2023/01/30 03:52:45;;;;;;;17.87;11.30;;;0.30;79.00;;;-0.55;76.40;98174.78;5086885;28;21033;-81
2023/01/30 03:55:14;;;;;;;19.07;12.47;;;0.30;78.90;;;-0.55;76.47;98180.09;5085734;28;20451;-81
2023/01/30 03:57:41;;;;;;;20.20;13.13;;;0.30;79.10;;;-0.55;76.52;98168.63;5085845;28;21209;-81
2023/01/30 04:00:10;;;;;;;18.20;11.60;;;0.30;78.90;;;-0.41;75.83;98168.19;5077489;28;20866;-80
2023/01/30 04:02:38;;;;;;;19.33;12.37;;;0.40;78.60;;;-0.31;75.69;98171.69;5078648;28;20474;-81
2023/01/30 04:05:06;;;;;;;17.77;12.80;;;0.40;78.70;;;-0.39;75.90;98174.19;5092864;28;20501;-81
2023/01/30 04:07:34;;;;;;;18.73;12.70;;;0.40;78.50;;;-0.43;76.09;98183.44;5081721;28;20455;-81
2023/01/30 04:10:01;;;;;;;19.50;12.70;;;0.40;78.60;;;-0.27;75.72;98188.19;5083166;28;20461;-81
2023/01/30 04:12:30;;;;;;;18.17;11.20;;;0.40;78.70;;;-1.09;75.29;98044.38;5075252;28;20458;-81
2023/01/30 04:14:57;;;;;;;19.90;13.83;;;0.40;78.40;;;-0.29;75.67;98185.66;5078466;28;20558;-83
2023/01/30 04:17:24;;;;;;;19.00;13.70;;;0.40;78.40;;;-0.40;76.12;98180.47;5073050;28;20531;-80
2023/01/30 04:19:51;;;;;;;19.93;12.17;;;0.40;78.50;;;-0.43;76.17;98184.28;5073218;28;20919;-81
2023/01/30 04:22:19;;;;;;;18.00;12.43;;;0.40;78.90;;;-0.34;76.36;98193.22;5078228;28;20551;-81
2023/01/30 04:24:46;;;;;;;18.77;13.37;;;0.40;78.90;;;-0.36;75.98;98195.19;5078830;28;20458;-81
2023/01/30 04:27:13;;;;;;;15.97;11.33;;;0.40;78.80;;;-0.50;75.79;98156.59;5081954;28;20448;-81
2023/01/30 04:29:42;;;;;;;17.17;12.47;;;0.40;78.90;;;-0.29;75.41;98195.44;5089023;28;20438;-81
2023/01/30 04:32:10;;;;;;;16.57;11.60;;;0.40;78.60;;;-0.34;75.64;98187.91;5079683;28;20461;-78
2023/01/30 04:34:38;;;;;;;16.97;11.17;;;0.40;78.70;;;-0.38;75.82;98181.22;5094482;28;20474;-80
2023/01/30 04:37:05;;;;;;;18.73;11.57;;;0.40;78.60;;;-0.31;75.82;98174.34;5085619;28;20454;-80
2023/01/30 04:39:33;;;;;;;17.30;10.63;;;0.40;78.60;;;-0.55;75.49;98148.25;5095246;28;20459;-81
2023/01/30 04:42:00;;;;;;;15.77;10.40;;;0.50;78.40;;;-0.27;75.83;98176.69;5080549;28;20779;-82
2023/01/30 04:44:27;;;;;;;18.03;12.23;;;0.50;78.60;;;-0.24;75.71;98176.41;5074457;28;20483;-81
2023/01/30 04:46:56;;;;;;;17.40;11.53;;;0.50;78.40;;;-0.29;76.12;98185.66;5076156;28;20464;-81
2023/01/30 04:49:23;;;;;;;16.17;12.50;;;0.50;78.50;;;-0.24;75.79;98181.72;5079198;28;20466;-81
2023/01/30 04:51:50;;;;;;;18.10;11.03;;;0.50;78.40;;;-0.31;75.28;98165.50;5091684;28;20452;-81
2023/01/30 04:54:18;;;;;;;13.80;9.03;;;0.60;78.30;;;-0.19;75.63;98184.81;5081700;28;20450;-83
2023/01/30 04:56:45;;;;;;;13.93;9.77;;;0.60;78.30;;;-0.24;75.98;98171.94;5082158;28;20454;-82
2023/01/30 04:59:13;;;;;;;17.47;10.20;;;0.60;78.40;;;-0.59;75.87;98093.78;5087420;28;20502;-81
2023/01/30 05:01:41;;;;;;;13.80;9.70;;;0.50;78.50;;;-0.35;76.92;98162.34;5086341;28;20481;-82
2023/01/30 05:04:09;;;;;;;15.37;9.90;;;0.50;79.00;;;-0.34;77.40;98161.34;5087268;28;20499;-82
2023/01/30 05:06:37;;;;;;;14.13;8.93;;;0.50;79.70;;;-0.35;77.99;98143.75;5080710;28;20515;-83
2023/01/30 05:09:05;;;;;;;15.30;9.70;;;0.50;80.60;;;-0.35;78.36;98143.75;5079772;28;20467;-81
2023/01/30 05:11:33;;;;;;;15.10;10.53;;;0.40;81.30;;;-0.31;78.92;98129.19;5078665;28;20940;-83
2023/01/30 05:14:00;;;;;;;17.77;10.67;;;0.50;82.30;;;-0.44;79.51;98126.84;5077152;28;20484;-81
2023/01/30 05:16:28;;;;;;;14.90;9.50;;;0.40;83.00;;;-0.54;80.05;98114.56;5086966;28;20497;-81
2023/01/30 05:18:55;;;;;;;16.07;11.40;;;0.40;83.70;;;-0.34;80.00;98134.78;5091523;28;20927;-81
2023/01/30 05:21:27;;;;;;;15.43;10.27;;;0.40;84.00;;;-0.25;79.76;98143.72;5098204;28;20461;-82
2023/01/30 05:23:55;;;;;;;17.03;12.10;;;0.40;84.40;;;-0.27;79.72;98135.06;5102388;28;20454;-83
2023/01/30 05:26:24;;;;;;;17.20;8.40;;;0.50;84.20;;;-0.32;80.09;98126.66;5094813;28;20452;-81
2023/01/30 05:28:53;;;;;;;17.43;12.43;;;0.50;84.60;;;-0.33;80.30;98123.19;5100150;28;20472;-82
2023/01/30 05:31:20;;;;;;;19.27;11.57;;;0.50;84.60;;;-0.54;81.23;98106.59;5078727;28;20456;-82
2023/01/30 05:33:50;;;;;;;19.83;13.03;;;0.50;86.20;;;-0.49;82.33;98138.88;5096846;28;20450;-81
2023/01/30 05:36:20;;;;;;;17.80;11.90;;;0.40;88.00;;;-0.63;82.06;98103.81;5074702;28;20867;-81
2023/01/30 05:38:49;;;;;;;18.53;11.50;;;0.30;88.80;;;-0.48;83.40;98127.28;5080080;28;20451;-76
2023/01/30 05:41:17;;;;;;;18.77;12.13;;;0.30;90.40;;;-1.24;82.96;97994.44;5076754;28;20450;-77
2023/01/30 05:43:44;;;;;;;17.80;11.60;;;0.40;90.30;;;-0.38;83.23;98130.75;5083187;28;20804;-76
2023/01/30 05:46:13;;;;;;;20.53;13.33;;;0.40;90.90;;;-0.65;83.92;98104.94;5082426;28;20454;-75
2023/01/30 05:48:40;;;;;;;19.20;12.33;;;0.40;90.90;;;-0.47;83.92;98118.31;5081356;28;20829;-75
2023/01/30 05:51:15;;;;;;;19.93;13.73;;;0.40;91.40;;;-0.52;83.86;98131.19;5092635;28;20444;-76
2023/01/30 05:53:42;;;;;;;16.83;11.17;;;0.40;91.40;;;-0.35;84.11;98145.53;5081261;28;20473;-78
2023/01/30 05:56:11;;;;;;;21.20;13.83;;;0.40;91.40;;;-0.39;84.04;98146.81;5081493;28;20454;-75
2023/01/30 05:58:39;;;;;;;20.97;11.83;;;0.40;90.90;;;-0.40;83.52;98138.00;5068554;28;20742;-69
2023/01/30 06:01:08;;;;;;;22.67;15.60;;;0.40;90.90;;;-0.37;83.20;98119.16;5069107;28;20500;-70
2023/01/30 06:03:36;;;;;;;21.37;14.03;;;0.40;90.50;;;-0.39;82.98;98115.78;5064713;28;20471;-70
2023/01/30 06:06:05;;;;;;;22.00;13.00;;;0.40;89.80;;;-0.39;83.45;98107.00;5059284;28;20632;-70
2023/01/30 06:08:33;;;;;;;18.00;12.37;;;0.40;90.30;;;-0.41;83.74;98122.22;5074365;28;20458;-71
2023/01/30 06:11:02;;;;;;;22.30;12.73;;;0.40;90.50;;;-0.50;84.30;98108.00;5068268;28;20515;-70
2023/01/30 06:13:31;;;;;;;25.20;15.00;;;0.40;90.90;;;-0.55;84.17;98094.28;5069042;28;20448;-73
2023/01/30 06:15:58;;;;;;;21.63;15.80;;;0.30;90.90;;;-0.48;83.80;98095.41;5094130;28;20472;-73
2023/01/30 06:18:25;;;;;;;18.00;10.70;;;0.30;90.90;;;-0.43;83.57;98107.28;5081002;28;20463;-72
2023/01/30 06:20:54;;;;;;;18.73;14.23;;;0.40;90.40;;;-0.45;83.84;98113.72;5068439;28;21240;-72
2023/01/30 06:23:23;;;;;;;20.87;13.63;;;0.40;90.40;;;-0.45;83.13;98109.25;5061950;28;20502;-70
2023/01/30 06:25:51;;;;;;;24.20;15.37;;;0.40;90.40;;;-0.34;83.46;98118.88;5076448;28;20463;-74
2023/01/30 06:28:19;;;;;;;21.43;13.90;;;0.30;90.50;;;-0.35;82.69;98111.88;5076931;28;20539;-73
2023/01/30 06:30:48;;;;;;;19.27;13.00;;;0.40;89.50;;;-0.31;82.27;98113.25;5078153;28;20540;-73
2023/01/30 06:33:16;;;;;;;19.80;14.10;;;0.40;89.20;;;-0.26;82.16;98126.13;5072073;28;20458;-73
2023/01/30 06:35:44;;;;;;;21.47;13.57;;;0.50;88.20;;;-0.25;81.39;98101.22;5078748;28;20451;-78
2023/01/30 06:38:13;;;;;;;19.87;14.33;;;0.40;87.40;;;-0.10;81.48;98117.53;5076605;28;20469;-70
2023/01/30 06:40:41;;;;;;;16.77;11.80;;;0.50;87.30;;;-0.13;80.91;98112.50;5076609;28;20449;-80
2023/01/30 06:43:08;;;;;;;22.93;15.43;;;0.60;85.80;;;0.09;82.98;98123.78;5073666;28;20489;-82
2023/01/30 06:45:35;;;;;;;21.33;13.17;;;0.70;90.20;;;0.01;81.09;98127.16;5070304;28;20515;-77
2023/01/30 06:48:05;;;;;;;13.73;8.90;;;0.70;87.20;;;-0.20;80.29;98101.63;5070735;28;20445;-82
2023/01/30 06:50:33;;;;;;;19.30;12.90;;;0.80;84.70;;;-0.08;80.31;98123.53;5075955;28;21669;-81
2023/01/30 06:53:03;;;;;;;18.93;14.10;;;0.70;84.50;;;-0.20;79.45;98109.59;5089322;28;20797;-69
2023/01/30 06:55:33;;;;;;;21.70;12.27;;;0.60;84.60;;;0.02;79.54;98107.56;5096912;28;20456;-76
2023/01/30 06:58:06;;;;;;;17.33;13.20;;;0.70;84.90;;;-0.05;79.39;98123.25;5109055;28;20467;-77
2023/01/30 07:00:33;;;;;;;16.13;11.37;;;0.70;84.20;;;-0.08;79.78;98133.31;5078790;28;20498;-75
2023/01/30 07:03:03;;;;;;;15.30;10.90;;;0.60;84.20;;;0.03;79.53;98114.56;5096655;28;20468;-80
2023/01/30 07:05:32;;;;;;;17.60;11.80;;;0.70;84.00;;;0.01;79.60;98115.69;5092076;28;20457;-81
2023/01/30 07:07:59;;;;;;;19.20;12.50;;;0.70;83.70;;;-0.08;78.91;98112.91;5105291;27;20489;-82
2023/01/30 07:10:28;;;;;;;16.90;12.53;;;0.70;83.20;;;-0.11;79.22;98115.03;5086465;28;20801;-83
2023/01/30 07:12:55;;;;;;;17.60;11.30;;;0.70;83.50;;;-0.02;79.07;98103.50;5095713;28;20923;-82
2023/01/30 07:15:22;;;;;;;16.00;10.83;;;0.70;83.60;;;0.05;79.26;98109.94;5085179;28;20488;-80
2023/01/30 07:17:49;;;;;;;17.10;11.73;;;0.80;83.40;;;0.08;78.73;98116.78;5099651;28;20452;-84
2023/01/30 07:20:18;;;;;;;18.53;11.93;;;0.80;82.80;;;0.09;79.37;98102.53;5092722;28;20453;-82
2023/01/30 07:22:50;;;;;;;17.53;11.30;;;0.80;82.90;;;0.26;78.62;98115.03;5080050;28;20472;-82
2023/01/30 07:25:18;;;;;;;17.57;10.40;;;0.90;83.10;;;0.22;78.28;98105.66;5076726;28;20457;-78
2023/01/30 07:27:51;;;;;;;14.80;11.43;;;0.90;82.50;;;0.18;78.35;98083.00;5081941;28;20546;-81
2023/01/30 07:30:18;;;;;;;15.67;10.50;;;0.90;82.30;;;0.22;78.52;98103.00;5076202;28;21163;-80
2023/01/30 07:32:50;;;;;;;14.50;11.57;;;0.90;82.50;;;-0.08;78.32;98054.47;5083348;28;20952;-80
2023/01/30 07:35:19;;;;;;;14.07;11.00;;;0.90;82.50;;;0.13;78.82;98094.09;5079484;28;20526;-77
2023/01/30 07:37:48;;;;;;;15.80;10.90;;;0.80;82.50;;;0.26;78.38;98088.44;5086143;27;20460;-77
2023/01/30 07:40:16;;;;;;;16.43;10.80;;;0.90;82.60;;;0.06;78.36;98070.91;5078365;28;20602;-79
2023/01/30 07:42:44;;;;;;;14.23;10.53;;;0.90;82.30;;;0.05;78.21;98055.94;5083816;28;20474;-79
2023/01/30 07:45:12;;;;;;;14.30;10.93;;;0.90;81.80;;;0.12;78.47;98065.84;5075086;28;20522;-78
2023/01/30 07:47:39;;;;;;;14.20;9.93;;;0.90;82.00;;;0.14;77.96;98052.41;5075378;28;20458;-76
2023/01/30 07:50:09;;;;;;;14.13;10.83;;;0.90;81.30;;;0.30;77.81;98051.75;5087496;28;20473;-76
2023/01/30 07:52:39;;;;;;;12.57;10.57;;;0.90;81.40;;;0.09;78.58;98049.38;5082780;28;20456;-79
2023/01/30 07:55:07;;;;;;;17.53;10.97;;;0.90;82.20;;;0.38;77.65;98035.06;5096644;27;20485;-81
2023/01/30 07:57:34;;;;;;;11.83;9.70;;;1.00;82.00;;;0.59;76.80;98042.75;5073360;28;20471;-76
2023/01/30 08:00:02;;;;;;;14.70;10.47;;;1.20;81.40;;;0.61;76.17;98037.28;5067069;28;20550;-75
2023/01/30 08:02:29;;;;;;;14.60;10.70;;;1.30;80.50;;;0.56;76.88;98033.28;5063976;28;20956;-75
2023/01/30 08:04:56;;;;;;;13.67;9.57;;;1.30;80.50;;;0.75;76.65;98033.25;5079889;27;20470;-75
2023/01/30 08:07:24;;;;;;;12.90;9.20;;;1.30;80.60;;;0.71;76.43;98019.44;5069503;28;20460;-75
2023/01/30 08:09:53;;;;;;;13.07;9.27;;;1.40;80.40;;;0.63;76.48;98033.50;5076171;28;20457;-75
2023/01/30 08:12:20;;;;;;;13.70;9.47;;;1.40;80.00;;;0.62;76.77;98023.84;5089186;28;20503;-76
2023/01/30 08:14:47;;;;;;;12.67;9.20;;;1.30;80.40;;;0.71;76.40;98022.09;5077670;28;20963;-77
2023/01/30 08:17:14;;;;;;;14.30;8.80;;;1.40;80.10;;;0.56;76.65;98019.97;5084122;28;20467;-77
2023/01/30 08:19:41;;;;;;;11.73;8.23;;;1.40;80.00;;;0.64;77.14;98021.03;5092643;28;20455;-77
2023/01/30 08:22:09;;;;;;;11.90;9.33;;;1.40;80.00;;;0.61;77.28;98026.66;5098909;28;20477;-76
2023/01/30 08:24:37;;;;;;;10.37;7.87;;;1.40;80.40;;;0.48;77.35;98005.78;5098475;28;20537;-76
2023/01/30 08:27:05;;;;;;;11.07;7.90;;;1.40;80.40;;;0.55;77.11;98015.66;5098953;28;20475;-78
2023/01/30 08:29:32;;;;;;;11.53;8.50;;;1.30;80.40;;;0.67;78.91;98015.41;5079057;28;20515;-78
2023/01/30 08:32:01;;;;;;;10.90;8.43;;;1.30;82.20;;;0.65;77.49;98017.38;5073484;28;20943;-79
2023/01/30 08:34:28;;;;;;;14.87;9.13;;;1.40;81.10;;;0.79;78.23;98013.38;5096262;27;20813;-74
2023/01/30 08:36:55;;;;;;;12.80;7.97;;;1.40;82.80;;;0.66;77.03;98008.41;5079252;28;22315;-73
2023/01/30 08:39:22;;;;;;;12.90;7.83;;;1.40;80.80;;;0.70;77.37;97999.16;5080719;28;20458;-74
2023/01/30 08:41:50;;;;;;;12.57;8.13;;;1.40;81.10;;;0.73;76.69;97998.84;5077879;28;20585;-73
2023/01/30 08:44:18;;;;;;;9.17;6.50;;;1.50;80.60;;;0.74;76.81;98005.84;5085234;28;20474;-73
2023/01/30 08:46:46;;;;;;;11.77;7.50;;;1.50;80.10;;;0.68;76.24;97980.69;5078091;28;20454;-72
2023/01/30 08:49:13;;;;;;;9.20;7.00;;;1.50;79.60;;;0.82;76.29;97992.59;5081840;28;20509;-73
2023/01/30 08:51:40;;;;;;;13.40;7.90;;;1.60;80.00;;;0.81;76.56;98001.56;5096011;28;20483;-73
2023/01/30 08:54:07;;;;;;;8.93;6.77;;;1.50;80.20;;;0.85;77.12;97975.50;5081058;28;20458;-71
2023/01/30 08:56:35;;;;;;;11.03;8.43;;;1.60;80.60;;;0.89;77.66;98002.63;5078090;28;20514;-72
2023/01/30 08:59:03;;;;;;;9.20;6.80;;;1.60;81.30;;;0.80;78.95;97993.75;5080163;28;20452;-74
2023/01/30 09:01:31;;;;;;;12.67;9.00;;;1.50;82.70;;;0.68;79.52;97977.19;5072346;28;20452;-73
2023/01/30 09:03:59;;;;;;;12.27;7.97;;;1.40;84.10;;;0.69;79.99;98005.47;5078192;28;20487;-74
2023/01/30 09:06:26;;;;;;;16.03;8.20;;;1.40;84.90;;;0.64;80.39;98011.25;5084938;28;21297;-72
2023/01/30 09:08:53;;;;;;;13.50;8.20;;;1.40;85.60;;;0.51;81.64;98016.91;5081340;28;20442;-72
2023/01/30 09:11:20;;;;;;;10.77;7.67;;;1.30;87.20;;;0.22;82.25;97966.63;5082356;28;20459;-72
2023/01/30 09:13:48;;;;;;;12.40;9.37;;;1.30;89.10;;;0.39;82.97;98013.66;5093647;28;21484;-72
2023/01/30 09:16:15;;;;;;;13.60;9.17;;;1.20;90.20;;;0.35;83.75;98020.25;5090547;27;20455;-73
2023/01/30 09:18:44;;;;;;;14.07;10.17;;;1.20;91.20;;;0.39;84.29;98012.84;5080652;28;20455;-73
2023/01/30 09:21:13;;;;;;;15.20;11.00;;;1.10;91.60;;;-0.01;84.76;97948.44;5078814;28;20443;-73
2023/01/30 09:23:41;;;;;;;13.53;9.00;;;1.10;92.10;;;0.41;84.30;98005.53;5076643;28;20479;-72
2023/01/30 09:26:09;;;;;;;15.53;10.40;;;1.10;92.30;;;0.28;85.09;98006.72;5075132;28;20452;-72
2023/01/30 09:28:39;;;;;;;15.13;10.73;;;1.10;92.50;;;0.27;85.33;97988.25;5080492;28;20938;-77
2023/01/30 09:31:06;;;;;;;15.20;10.30;;;1.10;93.10;;;0.22;86.02;97999.34;5090543;27;20948;-77
2023/01/30 09:33:34;;;;;;;14.97;10.57;;;1.00;93.80;;;0.27;86.40;98005.06;5082883;28;20439;-77
2023/01/30 09:36:02;;;;;;;15.67;10.80;;;1.00;94.20;;;0.39;85.82;97991.56;5084129;28;20450;-74
2023/01/30 09:38:30;;;;;;;14.30;10.40;;;1.10;94.40;;;0.35;85.22;97975.06;5074489;28;20451;-77
2023/01/30 09:41:26;;;;;;;16.50;9.60;;;1.10;93.00;;;0.34;85.66;97986.69;5078641;28;20457;-79
2023/01/30 09:44:33;;;;;;;14.73;9.40;;;1.10;92.50;;;0.55;84.74;97986.41;5099492;28;20482;-75
2023/01/30 09:47:11;;;;;;;12.60;8.80;;;1.20;92.00;;;0.59;84.68;97986.09;5086769;28;20448;-76
2023/01/30 09:49:52;;;;;;;16.77;10.57;;;1.20;91.80;;;0.67;84.12;97989.66;5084294;28;22263;-72
2023/01/30 09:52:29;;;;;;;14.30;7.97;;;1.30;91.70;;;0.45;84.32;97969.69;5071110;28;20483;-78
2023/01/30 09:55:14;;;;;;;14.20;9.00;;;1.40;90.80;;;0.65;83.59;97988.13;5083400;28;20458;-78
2023/01/30 09:57:41;;;;;;;11.23;8.70;;;1.40;90.80;;;0.65;83.26;97980.16;5074321;28;20444;-78
2023/01/30 10:00:19;;;;;;;13.57;9.23;;;1.40;90.40;;;0.74;82.92;97968.59;5080428;28;20453;-76
2023/01/30 10:02:52;;;;;;;14.50;8.50;;;1.40;90.40;;;0.79;82.90;97976.94;5083209;28;20466;-76
2023/01/30 10:05:21;;;;;;;12.10;8.87;;;1.40;90.10;;;0.84;81.97;97963.19;5073264;28;20451;-75
2023/01/30 10:08:17;;;;;;;11.67;8.13;;;1.50;88.60;;;1.01;81.85;97958.84;5083729;28;20503;-75
2023/01/30 10:10:51;;;;;;;9.30;6.17;;;1.60;88.60;;;0.95;80.98;97946.13;5086863;28;20462;-76
2023/01/30 10:13:41;;;;;;;10.80;7.53;;;1.70;86.40;;;0.93;80.86;97941.00;5086583;28;20592;-77
2023/01/30 10:16:15;;;;;;;10.33;6.40;;;1.70;86.30;;;0.96;80.58;97929.19;5077867;28;20460;-76
2023/01/30 10:19:35;;;;;;;13.97;7.50;;;1.80;85.90;;;1.31;80.04;97946.03;5097066;27;20482;-74
2023/01/30 10:22:16;;;;;;;10.13;7.10;;;1.90;85.90;;;1.23;80.18;97940.66;5063925;28;20461;-76
2023/01/30 10:24:56;;;;;;;6.37;4.13;;;1.90;85.50;;;0.95;80.13;97907.06;5078535;28;20624;-77
2023/01/30 10:27:25;;;;;;;9.47;6.80;;;1.90;84.80;;;1.36;80.05;97956.19;5081984;28;20512;-74
2023/01/30 10:29:56;;;;;;;9.70;6.57;;;2.00;84.90;;;1.22;79.63;97949.63;5077057;28;20454;-77
2023/01/30 10:32:30;;;;;;;8.60;6.33;;;2.00;84.10;;;1.31;80.19;97942.53;5081529;28;20474;-76
2023/01/30 10:35:10;;;;;;;8.93;6.17;;;2.00;84.90;;;1.39;79.31;97929.28;5083036;28;20482;-76